Weather at Silverbell Army Heliport

Public forecast

Using degrees Fahrenheit for public forecast. Weather courtesy of forecast.io.

Closest aviation weather report (METAR) to Silverbell Army Heliport

Closest report is Marana Regional Airport, 9.0 nm (16.6 km) SE. Retrieved 2020/09/28 14:35 UTC (6 minutes ago):

KAVQ 281435Z AUTO 12005KT 10SM CLR 23/00 A2997 RMK AO2 T02250002

Closest aviation forecast (TAF) to Silverbell Army Heliport

Closest forecast is Davis Monthan Air Force Base, 31.3 nm (58.0 km) SE. Retrieved 2020/09/28 14:06 UTC (35 minutes ago):

TAF TAF KDMA 281401Z 2814/2920 VRB06KT 9999 SKC QNH3001INS BECMG 2816/2817 12009KT 9999 FEW120 QNH2995INS TEMPO 2818/2901 12015G20KT BECMG 2900/2901 12009KT 9999 SKC QNH2997INS TX36/2820Z TN19/2913Z